SV2BBO-2 Thessaloniki GR current weather conditions

sailwx.info

Wind from 334 at 8 knots gusting 9

Air temperature 16.7° C
Dewpoint -5.8° C

Last reported at 2015-Apr-19 09:47 UTC.
Time now 2015-Apr-19 11:02 UTC

Location: N 40°38' E 022°57'.
View on Google Maps.

See reports from other nearby stations

  
Tides and Currents Weather Stations Pressure Air Temp Water Temp Dewpoint Dewpoint Depression Visibility Wind Speed Wind Dir Waves Ship Positions
date/time (UTC)wind fromknots sea level pressurealtimeterstation pressurevisibilityair tempwater tempwave heightnotes
2015-Apr-19 09:47 334 8 gusting 9 16.7
2015-Apr-19 09:37 356 7 gusting 10 16.7
2015-Apr-19 09:27 338 6 gusting 6 16.7
2015-Apr-19 09:17 315 10 gusting 11 16.7
2015-Apr-19 09:07 353 6 gusting 7 16.7
2015-Apr-19 08:57 328 6 gusting 11 16.7
2015-Apr-19 08:47 333 6 gusting 11 16.7
2015-Apr-19 08:37 002 10 gusting 12 16.1
2015-Apr-19 08:27 015 9 gusting 9 17.2
2015-Apr-19 08:17 356 10 gusting 14 17.2
2015-Apr-19 08:07 342 6 gusting 6 17.2
2015-Apr-19 07:57 338 6 gusting 10 16.7
2015-Apr-19 07:47 009 9 gusting 13 16.7
2015-Apr-19 07:37 354 7 gusting 10 16.1
2015-Apr-19 07:27 338 7 gusting 14 16.1
2015-Apr-19 07:17 348 12 gusting 13 15.6
2015-Apr-19 07:07 345 9 gusting 13 15.6
2015-Apr-19 06:57 005 9 gusting 18 15.6
2015-Apr-19 06:47 001 10 gusting 15 16.1
2015-Apr-19 06:37 004 11 gusting 16 15.6
2015-Apr-19 06:27 008 10 gusting 13 15.6
2015-Apr-19 06:17 350 10 gusting 15 15.6
2015-Apr-19 06:07 353 7 gusting 13 15.0
2015-Apr-19 05:57 001 8 gusting 10 15.0
2015-Apr-19 05:47 003 13 gusting 15 15.0
2015-Apr-19 05:37 011 9 gusting 10 15.0
2015-Apr-19 05:27 006 10 gusting 11 14.4
2015-Apr-19 05:17 358 9 gusting 9 13.9
2015-Apr-19 05:07 346 10 gusting 13 13.9
2015-Apr-19 04:57 019 12 gusting 19 13.9
2015-Apr-19 04:47 001 13 gusting 21 13.9
2015-Apr-19 04:37 350 12 gusting 14 13.9
2015-Apr-19 04:27 352 11 gusting 15 13.3
2015-Apr-19 04:17 009 11 gusting 13 13.9
2015-Apr-19 04:07 351 13 gusting 15 13.9
2015-Apr-19 03:57 342 8 gusting 10 13.9
2015-Apr-19 03:47 344 9 gusting 13 13.9
2015-Apr-19 03:37 333 8 gusting 9 13.9
2015-Apr-19 03:27 022 7 gusting 12 14.4
2015-Apr-19 03:17 031 9 gusting 13 14.4
2015-Apr-19 03:07 357 8 gusting 7 14.4
2015-Apr-19 02:57 003 9 gusting 7 15.0
2015-Apr-19 02:47 357 10 gusting 7 15.0
2015-Apr-19 02:37 350 10 gusting 13 15.0
2015-Apr-19 02:27 008 6 gusting 7 15.0
2015-Apr-19 02:17 007 6 gusting 7 15.0
2015-Apr-19 02:07 352 8 gusting 11 15.0
2015-Apr-19 01:57 15.6
2015-Apr-19 01:47 357 9 gusting 13 15.6
2015-Apr-19 01:37 008 11 gusting 13 15.6
2015-Apr-19 01:27 357 12 gusting 16 16.1
2015-Apr-19 01:17 016 9 gusting 9 16.1
2015-Apr-19 01:07 001 6 gusting 9 16.1
2015-Apr-19 00:57 002 11 gusting 13 16.1
2015-Apr-19 00:47 008 11 gusting 14 16.1
2015-Apr-19 00:37 016 11 gusting 8 16.1
2015-Apr-19 00:27 022 11 gusting 13 16.7
2015-Apr-19 00:17 013 11 gusting 13 17.2
2015-Apr-19 00:07 350 8 gusting 13 17.2
2015-Apr-18 23:57 356 13 gusting 15 17.8
2015-Apr-18 23:47 007 11 gusting 15 17.8
2015-Apr-18 23:37 012 10 gusting 11 18.3
2015-Apr-18 23:27 014 12 gusting 19 18.3
2015-Apr-18 23:17 348 9 gusting 9 18.9
2015-Apr-18 23:07 006 7 gusting 11 18.9
2015-Apr-18 22:57 003 9 gusting 11 18.9
2015-Apr-18 22:47 351 10 gusting 13 18.9
2015-Apr-18 22:37 005 8 gusting 12 18.9
2015-Apr-18 22:27 017 13 gusting 15 19.4
2015-Apr-18 22:17 008 7 gusting 10 19.4
2015-Apr-18 22:07 357 7 gusting 12 19.4
2015-Apr-18 21:57 353 8 gusting 10 20.0
2015-Apr-18 21:47 004 7 gusting 8 20.0
2015-Apr-18 21:37 008 7 gusting 9 20.0
2015-Apr-18 21:27 358 8 gusting 7 20.6
2015-Apr-18 21:17 008 7 gusting 6 20.6
2015-Apr-18 21:07 005 7 gusting 10 20.6
2015-Apr-18 20:57 354 8 gusting 10 21.1
2015-Apr-18 20:47 001 6 gusting 8 21.1
2015-Apr-18 20:37 356 6 gusting 7 21.7
2015-Apr-18 20:27 013 3 gusting 4 21.7
2015-Apr-18 20:17 302 4 gusting 7 21.7
2015-Apr-18 20:07 284 2 gusting 3 22.2
2015-Apr-18 19:57 285 22.2
2015-Apr-18 19:47 284 22.2
2015-Apr-18 19:37 330 22.8
2015-Apr-18 19:27 331 22.8
2015-Apr-18 19:17 331 0 23.3
2015-Apr-18 19:07 312 2 gusting 3 23.3
2015-Apr-18 18:57 353 23.3
2015-Apr-18 18:47 353 23.3
2015-Apr-18 18:37 013 23.3
2015-Apr-18 18:27 045 23.3
2015-Apr-18 18:17 052 23.9
2015-Apr-18 18:07 098 2 gusting 5 23.9
2015-Apr-18 17:57 135 2 gusting 3 23.9
2015-Apr-18 17:47 146 3 gusting 4 23.9
2015-Apr-18 17:37 078 3 gusting 3 23.9
2015-Apr-18 17:27 093 3 gusting 4 24.4
2015-Apr-18 17:17 112 3 gusting 4 24.4
2015-Apr-18 17:07 061 0 gusting 3 25.0
2015-Apr-18 16:57 150 4 gusting 5 25.0
2015-Apr-18 16:47 152 3 gusting 4 25.6
2015-Apr-18 16:37 175 4 gusting 8 25.6
2015-Apr-18 16:27 136 6 gusting 7 25.6
2015-Apr-18 16:17 156 4 gusting 7 25.6
2015-Apr-18 16:07 138 4 gusting 4 26.1
2015-Apr-18 15:57 178 7 gusting 8 26.1
2015-Apr-18 15:47 141 5 gusting 7 26.1
2015-Apr-18 15:37 135 5 gusting 6 26.1
2015-Apr-18 15:27 135 6 gusting 7 26.7
2015-Apr-18 15:17 167 5 gusting 7 26.7
2015-Apr-18 15:07 142 5 gusting 8 26.7
2015-Apr-18 14:57 166 5 gusting 6 26.7
2015-Apr-18 14:47 159 5 gusting 5 26.7
2015-Apr-18 14:37 161 4 gusting 6 26.7
2015-Apr-18 14:27 152 4 gusting 5 26.7
2015-Apr-18 14:17 198 6 gusting 7 26.7
2015-Apr-18 14:07 151 3 gusting 6 26.7
2015-Apr-18 13:57 160 6 gusting 6 27.2
2015-Apr-18 13:47 191 4 gusting 8 27.2
2015-Apr-18 13:37 196 5 gusting 7 27.2
2015-Apr-18 13:27 200 6 gusting 7 27.2
2015-Apr-18 13:17 182 4 gusting 5 27.2
2015-Apr-18 13:07 150 6 gusting 7 27.2
2015-Apr-18 12:57 169 4 gusting 6 27.2
2015-Apr-18 12:47 190 4 gusting 5 27.2
2015-Apr-18 12:37 184 5 gusting 7 26.7
2015-Apr-18 12:27 169 6 gusting 6 26.7
2015-Apr-18 12:17 207 5 gusting 5 26.7
2015-Apr-18 12:07 180 5 gusting 10 26.7
2015-Apr-18 11:57 182 3 gusting 6 26.7
2015-Apr-18 11:47 153 5 gusting 3 26.7
2015-Apr-18 11:37 144 3 gusting 7 26.7
2015-Apr-18 11:27 146 5 gusting 6 26.7
2015-Apr-18 11:17 173 6 gusting 6 26.7
2015-Apr-18 11:07 167 5 gusting 6 26.7
2015-Apr-18 10:57 193 5 gusting 6 26.1
2015-Apr-18 10:47 179 5 gusting 7 26.1
2015-Apr-18 10:37 175 5 gusting 6 25.6
2015-Apr-18 10:27 176 3 gusting 4 25.0
2015-Apr-18 10:17 191 5 gusting 6 25.0
2015-Apr-18 10:07 187 3 gusting 4 24.4
2015-Apr-18 09:57 201 3 gusting 6 24.4
2015-Apr-18 09:47 192 2 gusting 4 24.4
2015-Apr-18 09:37 244 3 gusting 4 23.9
2015-Apr-18 09:27 200 3 gusting 3 23.9
2015-Apr-18 09:17 203 2 gusting 5 23.9
2015-Apr-18 09:07 221 3 gusting 4 23.9
2015-Apr-18 08:57 225 2 gusting 5 23.9
2015-Apr-18 08:47 234 2 gusting 5 23.9
2015-Apr-18 08:37 226 3 gusting 4 23.9
2015-Apr-18 08:27 226 3 gusting 4 24.4
2015-Apr-18 08:17 204 3 gusting 3 24.4
2015-Apr-18 08:07 174 3 gusting 3 24.4
2015-Apr-18 07:57 190 3 gusting 3 24.4
2015-Apr-18 07:47 217 2 gusting 3 24.4
2015-Apr-18 07:37 200 3 gusting 4 23.9
2015-Apr-18 07:27 152 2 23.9
2015-Apr-18 07:17 148 23.9
2015-Apr-18 07:07 148 0 gusting 2 22.8
2015-Apr-18 06:57 148 2 gusting 2 22.2
2015-Apr-18 06:47 090 21.7
2015-Apr-18 06:37 091 1 gusting 3 21.1
2015-Apr-18 06:27 093 21.1
2015-Apr-18 06:17 094 20.0
2015-Apr-18 06:07 094 19.4
2015-Apr-18 05:57 094 18.9
2015-Apr-18 05:47 094 18.3
2015-Apr-18 05:37 094 18.3
2015-Apr-18 05:27 094 18.3
2015-Apr-18 05:17 094 17.8
2015-Apr-18 05:07 094 17.2
2015-Apr-18 04:57 094 0 gusting 3 16.7
2015-Apr-18 04:47 104 1 gusting 3 17.2
2015-Apr-18 04:37 118 2 gusting 3 17.2
2015-Apr-18 04:27 047 2 gusting 2 17.2
2015-Apr-18 04:17 047 17.2
2015-Apr-18 04:07 047 17.2
2015-Apr-18 03:57 047 17.2
2015-Apr-18 03:47 041 3 gusting 3 17.2
2015-Apr-18 03:37 357 17.8
2015-Apr-18 03:27 357 1 gusting 3 17.8
2015-Apr-18 03:17 357 3 gusting 4 17.2
2015-Apr-18 03:07 025 3 gusting 3 17.2
2015-Apr-18 02:57 247 17.2
2015-Apr-18 02:47 247 17.2
2015-Apr-18 02:37 247 17.2
2015-Apr-18 02:27 247 17.8
2015-Apr-18 02:17 247 17.8
2015-Apr-18 02:07 235 2 gusting 3 17.8
2015-Apr-18 01:57 279 2 gusting 3 17.8
2015-Apr-18 01:47 039 2 gusting 3 17.8
2015-Apr-18 01:37 057 2 gusting 3 17.8
2015-Apr-18 01:27 074 0 17.8
2015-Apr-18 01:17 075 2 gusting 3 17.8
2015-Apr-18 01:07 045 2 gusting 3 17.2
2015-Apr-18 00:57 327 17.2
2015-Apr-18 00:47 327 17.8
2015-Apr-18 00:37 327 17.8
2015-Apr-18 00:27 327 18.3
2015-Apr-18 00:17 329 0 gusting 2 17.8
2015-Apr-18 00:07 329 17.8
2015-Apr-17 23:57 329 2 gusting 2 18.3
2015-Apr-17 23:47 234 17.8
2015-Apr-17 23:37 234 18.3
2015-Apr-17 23:27 203 2 gusting 4 18.9
2015-Apr-17 23:17 006 18.9
2015-Apr-17 23:07 006 18.9
2015-Apr-17 22:57 006 0 18.9
2015-Apr-17 22:47 357 3 gusting 3 18.3
2015-Apr-17 22:37 052 18.3
2015-Apr-17 22:27 052 18.3
2015-Apr-17 22:17 068 1 gusting 2 18.9
2015-Apr-17 22:07 086 0 18.9
2015-Apr-17 21:57 307 18.9
2015-Apr-17 21:47 307 2 gusting 2 18.9
2015-Apr-17 21:37 024 2 gusting 2 18.9
2015-Apr-17 21:27 254 3 gusting 3 18.9
2015-Apr-17 21:17 044 18.9
2015-Apr-17 21:07 085 3 gusting 2 18.9
2015-Apr-17 20:57 079 1 gusting 4 18.9
2015-Apr-17 20:47 123 19.4
2015-Apr-17 20:37 221 1 gusting 3 19.4
2015-Apr-17 20:27 299 19.4
2015-Apr-17 20:17 299 19.4
2015-Apr-17 20:07 267 2 gusting 3 19.4
2015-Apr-17 19:57 270 2 gusting 3 19.4
2015-Apr-17 19:47 182 2 gusting 3 19.4
2015-Apr-17 19:37 075 2 gusting 3 19.4
2015-Apr-17 19:27 070 3 gusting 2 19.4
2015-Apr-17 19:17 045 2 gusting 5 19.4
2015-Apr-17 19:07 311 2 gusting 4 18.9
2015-Apr-17 18:57 289 1 gusting 3 19.4
2015-Apr-17 18:47 283 2 gusting 2 18.9
2015-Apr-17 18:37 334 18.9
2015-Apr-17 18:27 322 3 gusting 3 18.9
2015-Apr-17 18:17 321 18.9
2015-Apr-17 18:07 290 2 gusting 3 19.4
2015-Apr-17 17:57 341 19.4
2015-Apr-17 17:47 279 2 gusting 3 18.9
2015-Apr-17 17:37 330 3 gusting 3 19.4
2015-Apr-17 17:27 290 19.4
2015-Apr-17 17:17 277 2 gusting 4 19.4
2015-Apr-17 17:07 243 3 gusting 3 20.0
2015-Apr-17 16:57 246 3 gusting 2 20.0
2015-Apr-17 16:47 008 20.0
2015-Apr-17 16:37 264 20.0
2015-Apr-17 16:27 288 3 gusting 3 20.6
2015-Apr-17 16:17 336 3 gusting 3 20.6
2015-Apr-17 16:07 212 3 gusting 3 20.6
2015-Apr-17 15:57 242 5 gusting 6 21.1
2015-Apr-17 15:47 216 3 gusting 5 21.7
2015-Apr-17 15:37 245 5 gusting 6 21.7
2015-Apr-17 15:27 190 2 gusting 3 21.7
2015-Apr-17 15:17 259 3 gusting 4 21.7
2015-Apr-17 15:07 269 3 gusting 3 22.2
2015-Apr-17 14:57 246 4 gusting 6 22.8
2015-Apr-17 14:47 232 3 gusting 5 23.3
2015-Apr-17 14:37 226 3 gusting 5 24.4
2015-Apr-17 14:27 165 5 gusting 7 24.4
2015-Apr-17 14:17 198 5 gusting 6 23.9
2015-Apr-17 14:07 212 5 gusting 6 23.9
2015-Apr-17 13:57 206 4 gusting 5 23.9
2015-Apr-17 13:47 212 5 gusting 7 23.3
2015-Apr-17 13:37 190 4 gusting 5 23.3
2015-Apr-17 13:27 224 5 gusting 6 23.3
2015-Apr-17 13:17 223 5 gusting 6 22.8
2015-Apr-17 13:07 211 6 gusting 7 22.2
2015-Apr-17 12:57 229 4 gusting 5 22.2
2015-Apr-17 12:47 181 3 gusting 3 22.2
2015-Apr-17 12:37 217 3 gusting 4 21.7
2015-Apr-17 12:27 214 2 gusting 4 21.7
2015-Apr-17 12:17 220 3 gusting 4 21.7
2015-Apr-17 12:07 195 2 gusting 5 21.7
2015-Apr-17 11:57 210 4 gusting 6 21.7
2015-Apr-17 11:47 219 3 gusting 3 21.7
2015-Apr-17 11:37 249 21.7
2015-Apr-17 11:27 284 2 gusting 3 21.7
2015-Apr-17 11:17 194 3 gusting 5 21.7
2015-Apr-17 11:07 270 3 gusting 3 21.7